sensor_id;sensor_type;location;lat;lon;timestamp;temperature;humidity
11577;DHT22;5844;51.496;6.788;2023-11-21T00:02:21;7.80;1.00
11577;DHT22;5844;51.496;6.788;2023-11-21T00:04:48;7.80;1.00
11577;DHT22;5844;51.496;6.788;2023-11-21T00:07:14;7.80;1.00
11577;DHT22;5844;51.496;6.788;2023-11-21T00:09:40;7.90;1.00
11577;DHT22;5844;51.496;6.788;2023-11-21T00:12:07;7.90;1.00
11577;DHT22;5844;51.496;6.788;2023-11-21T00:14:36;7.90;1.00
11577;DHT22;5844;51.496;6.788;2023-11-21T00:17:02;8.00;1.00
11577;DHT22;5844;51.496;6.788;2023-11-21T00:19:28;7.90;1.00
11577;DHT22;5844;51.496;6.788;2023-11-21T00:21:53;7.80;1.00
11577;DHT22;5844;51.496;6.788;2023-11-21T00:24:19;7.90;1.00
11577;DHT22;5844;51.496;6.788;2023-11-21T00:26:45;7.80;4.50
11577;DHT22;5844;51.496;6.788;2023-11-21T00:29:10;7.80;1.00
11577;DHT22;5844;51.496;6.788;2023-11-21T00:31:36;7.80;1.00
11577;DHT22;5844;51.496;6.788;2023-11-21T00:34:05;7.80;1.00
11577;DHT22;5844;51.496;6.788;2023-11-21T00:36:31;7.80;1.00
11577;DHT22;5844;51.496;6.788;2023-11-21T00:38:57;7.80;1.00
11577;DHT22;5844;51.496;6.788;2023-11-21T00:41:23;7.80;1.00
11577;DHT22;5844;51.496;6.788;2023-11-21T00:43:49;7.80;1.00
11577;DHT22;5844;51.496;6.788;2023-11-21T00:46:14;7.80;1.00
11577;DHT22;5844;51.496;6.788;2023-11-21T00:48:40;7.70;1.00
11577;DHT22;5844;51.496;6.788;2023-11-21T00:51:06;7.70;1.00
11577;DHT22;5844;51.496;6.788;2023-11-21T00:53:32;7.70;1.00
11577;DHT22;5844;51.496;6.788;2023-11-21T00:55:57;7.70;1.00
11577;DHT22;5844;51.496;6.788;2023-11-21T00:58:26;7.80;1.00
11577;DHT22;5844;51.496;6.788;2023-11-21T01:00:52;7.80;1.00
11577;DHT22;5844;51.496;6.788;2023-11-21T01:03:18;7.80;1.00
11577;DHT22;5844;51.496;6.788;2023-11-21T01:05:44;7.70;1.00
11577;DHT22;5844;51.496;6.788;2023-11-21T01:08:10;7.70;1.00
11577;DHT22;5844;51.496;6.788;2023-11-21T01:10:36;7.70;1.00
11577;DHT22;5844;51.496;6.788;2023-11-21T01:13:02;7.80;1.00
11577;DHT22;5844;51.496;6.788;2023-11-21T01:15:30;7.70;1.00
11577;DHT22;5844;51.496;6.788;2023-11-21T01:17:56;7.80;1.00
11577;DHT22;5844;51.496;6.788;2023-11-21T01:20:21;7.90;1.00
11577;DHT22;5844;51.496;6.788;2023-11-21T01:22:47;7.90;1.00
11577;DHT22;5844;51.496;6.788;2023-11-21T01:25:14;7.90;1.00
11577;DHT22;5844;51.496;6.788;2023-11-21T01:27:41;8.00;1.00
11577;DHT22;5844;51.496;6.788;2023-11-21T01:30:07;8.00;1.00
11577;DHT22;5844;51.496;6.788;2023-11-21T01:32:36;8.00;1.00
11577;DHT22;5844;51.496;6.788;2023-11-21T01:35:02;8.00;1.00
11577;DHT22;5844;51.496;6.788;2023-11-21T01:37:27;8.00;1.00
11577;DHT22;5844;51.496;6.788;2023-11-21T01:39:54;8.10;1.00
11577;DHT22;5844;51.496;6.788;2023-11-21T01:42:21;8.10;1.00
11577;DHT22;5844;51.496;6.788;2023-11-21T01:44:46;8.10;1.00
11577;DHT22;5844;51.496;6.788;2023-11-21T01:47:13;8.10;1.00
11577;DHT22;5844;51.496;6.788;2023-11-21T01:49:39;8.10;1.00
11577;DHT22;5844;51.496;6.788;2023-11-21T01:52:06;8.10;1.00
11577;DHT22;5844;51.496;6.788;2023-11-21T01:54:32;8.10;1.00
11577;DHT22;5844;51.496;6.788;2023-11-21T01:56:58;8.00;1.00
11577;DHT22;5844;51.496;6.788;2023-11-21T01:59:33;8.10;1.00
11577;DHT22;5844;51.496;6.788;2023-11-21T02:02:00;8.10;1.00
11577;DHT22;5844;51.496;6.788;2023-11-21T02:04:25;8.20;1.00
11577;DHT22;5844;51.496;6.788;2023-11-21T02:06:51;8.30;1.00
11577;DHT22;5844;51.496;6.788;2023-11-21T02:09:17;8.10;1.00
11577;DHT22;5844;51.496;6.788;2023-11-21T02:11:48;8.20;1.00
11577;DHT22;5844;51.496;6.788;2023-11-21T02:14:14;8.20;1.00
11577;DHT22;5844;51.496;6.788;2023-11-21T02:16:40;8.20;1.00
11577;DHT22;5844;51.496;6.788;2023-11-21T02:19:07;8.30;1.00
11577;DHT22;5844;51.496;6.788;2023-11-21T02:21:35;8.30;1.00
11577;DHT22;5844;51.496;6.788;2023-11-21T02:24:01;8.30;1.00
11577;DHT22;5844;51.496;6.788;2023-11-21T02:26:27;8.30;1.00
11577;DHT22;5844;51.496;6.788;2023-11-21T02:28:53;8.30;1.00
11577;DHT22;5844;51.496;6.788;2023-11-21T02:31:19;8.40;1.00
11577;DHT22;5844;51.496;6.788;2023-11-21T02:33:44;8.40;1.00
11577;DHT22;5844;51.496;6.788;2023-11-21T02:36:10;8.40;1.00
11577;DHT22;5844;51.496;6.788;2023-11-21T02:38:35;8.40;1.00
11577;DHT22;5844;51.496;6.788;2023-11-21T02:41:01;8.40;1.00
11577;DHT22;5844;51.496;6.788;2023-11-21T02:43:27;8.40;1.00
11577;DHT22;5844;51.496;6.788;2023-11-21T02:45:52;8.40;1.00
11577;DHT22;5844;51.496;6.788;2023-11-21T02:48:18;8.40;1.00
11577;DHT22;5844;51.496;6.788;2023-11-21T02:50:43;8.30;1.00
11577;DHT22;5844;51.496;6.788;2023-11-21T02:53:09;8.40;1.00
11577;DHT22;5844;51.496;6.788;2023-11-21T02:55:36;8.30;1.00
11577;DHT22;5844;51.496;6.788;2023-11-21T02:58:02;8.30;1.00
11577;DHT22;5844;51.496;6.788;2023-11-21T03:00:29;8.40;1.00
11577;DHT22;5844;51.496;6.788;2023-11-21T03:02:57;8.30;1.00
11577;DHT22;5844;51.496;6.788;2023-11-21T03:05:23;8.30;1.00
11577;DHT22;5844;51.496;6.788;2023-11-21T03:07:49;8.30;1.00
11577;DHT22;5844;51.496;6.788;2023-11-21T03:10:14;8.40;1.00
11577;DHT22;5844;51.496;6.788;2023-11-21T03:12:40;8.40;1.00
11577;DHT22;5844;51.496;6.788;2023-11-21T03:15:07;8.40;1.00
11577;DHT22;5844;51.496;6.788;2023-11-21T03:17:33;8.40;1.00
11577;DHT22;5844;51.496;6.788;2023-11-21T03:20:04;8.40;1.00
11577;DHT22;5844;51.496;6.788;2023-11-21T03:22:30;8.40;1.00
11577;DHT22;5844;51.496;6.788;2023-11-21T03:24:55;8.50;1.00
11577;DHT22;5844;51.496;6.788;2023-11-21T03:27:21;8.50;1.00
11577;DHT22;5844;51.496;6.788;2023-11-21T03:29:48;8.50;1.00
11577;DHT22;5844;51.496;6.788;2023-11-21T03:32:14;8.50;1.00
11577;DHT22;5844;51.496;6.788;2023-11-21T03:34:54;8.50;1.00
11577;DHT22;5844;51.496;6.788;2023-11-21T03:37:21;8.50;1.00
11577;DHT22;5844;51.496;6.788;2023-11-21T03:39:47;8.50;1.00
11577;DHT22;5844;51.496;6.788;2023-11-21T03:42:12;8.50;1.00
11577;DHT22;5844;51.496;6.788;2023-11-21T03:44:38;8.60;1.00
11577;DHT22;5844;51.496;6.788;2023-11-21T03:47:04;8.60;1.00
11577;DHT22;5844;51.496;6.788;2023-11-21T03:49:30;8.50;1.00
11577;DHT22;5844;51.496;6.788;2023-11-21T03:51:56;8.50;1.00
11577;DHT22;5844;51.496;6.788;2023-11-21T03:54:22;8.50;1.00
11577;DHT22;5844;51.496;6.788;2023-11-21T03:56:48;8.50;1.00
11577;DHT22;5844;51.496;6.788;2023-11-21T03:59:13;8.60;1.00
11577;DHT22;5844;51.496;6.788;2023-11-21T04:01:39;8.60;1.00
11577;DHT22;5844;51.496;6.788;2023-11-21T04:04:04;8.50;1.00
11577;DHT22;5844;51.496;6.788;2023-11-21T04:06:30;8.50;1.00
11577;DHT22;5844;51.496;6.788;2023-11-21T04:08:58;8.50;1.00
11577;DHT22;5844;51.496;6.788;2023-11-21T04:11:24;8.40;1.00
11577;DHT22;5844;51.496;6.788;2023-11-21T04:13:49;8.40;1.00
11577;DHT22;5844;51.496;6.788;2023-11-21T04:16:15;8.50;1.00
11577;DHT22;5844;51.496;6.788;2023-11-21T04:18:41;8.50;1.00
11577;DHT22;5844;51.496;6.788;2023-11-21T04:21:07;8.70;1.00
11577;DHT22;5844;51.496;6.788;2023-11-21T04:23:33;8.50;1.00
11577;DHT22;5844;51.496;6.788;2023-11-21T04:25:59;8.50;1.00
11577;DHT22;5844;51.496;6.788;2023-11-21T04:28:25;8.50;1.00
11577;DHT22;5844;51.496;6.788;2023-11-21T04:30:51;8.50;1.00
11577;DHT22;5844;51.496;6.788;2023-11-21T04:33:17;8.50;1.00
11577;DHT22;5844;51.496;6.788;2023-11-21T04:35:42;8.40;1.00
11577;DHT22;5844;51.496;6.788;2023-11-21T04:38:08;8.40;1.00
11577;DHT22;5844;51.496;6.788;2023-11-21T04:40:33;8.40;1.00
11577;DHT22;5844;51.496;6.788;2023-11-21T04:42:59;8.40;1.00
11577;DHT22;5844;51.496;6.788;2023-11-21T04:45:25;8.30;1.00
11577;DHT22;5844;51.496;6.788;2023-11-21T04:47:50;8.40;1.00
11577;DHT22;5844;51.496;6.788;2023-11-21T04:50:18;8.30;1.00
11577;DHT22;5844;51.496;6.788;2023-11-21T04:52:44;8.30;1.00
11577;DHT22;5844;51.496;6.788;2023-11-21T04:55:10;8.30;1.00
11577;DHT22;5844;51.496;6.788;2023-11-21T04:57:39;8.30;1.00
11577;DHT22;5844;51.496;6.788;2023-11-21T05:00:09;8.30;1.00
11577;DHT22;5844;51.496;6.788;2023-11-21T05:02:35;8.40;1.00
11577;DHT22;5844;51.496;6.788;2023-11-21T05:05:02;8.40;1.00
11577;DHT22;5844;51.496;6.788;2023-11-21T05:07:27;8.40;1.00
11577;DHT22;5844;51.496;6.788;2023-11-21T05:09:54;8.30;1.00
11577;DHT22;5844;51.496;6.788;2023-11-21T05:12:22;8.30;1.00
11577;DHT22;5844;51.496;6.788;2023-11-21T05:14:49;8.30;1.00
11577;DHT22;5844;51.496;6.788;2023-11-21T05:17:14;8.30;1.00
11577;DHT22;5844;51.496;6.788;2023-11-21T05:19:40;8.30;1.00
11577;DHT22;5844;51.496;6.788;2023-11-21T05:22:06;8.30;1.00
11577;DHT22;5844;51.496;6.788;2023-11-21T05:24:33;8.20;1.00
11577;DHT22;5844;51.496;6.788;2023-11-21T05:26:59;8.10;1.00
11577;DHT22;5844;51.496;6.788;2023-11-21T05:29:25;8.10;1.00
11577;DHT22;5844;51.496;6.788;2023-11-21T05:31:51;8.60;1.00
11577;DHT22;5844;51.496;6.788;2023-11-21T05:34:16;8.10;1.00
11577;DHT22;5844;51.496;6.788;2023-11-21T05:36:43;8.40;1.00
11577;DHT22;5844;51.496;6.788;2023-11-21T05:39:11;8.00;1.00
11577;DHT22;5844;51.496;6.788;2023-11-21T05:41:37;8.10;1.00
11577;DHT22;5844;51.496;6.788;2023-11-21T05:44:02;8.00;1.00
11577;DHT22;5844;51.496;6.788;2023-11-21T05:46:28;8.00;1.00
11577;DHT22;5844;51.496;6.788;2023-11-21T05:48:53;8.00;1.00
11577;DHT22;5844;51.496;6.788;2023-11-21T05:51:20;8.00;1.00
11577;DHT22;5844;51.496;6.788;2023-11-21T05:53:45;8.00;1.00
11577;DHT22;5844;51.496;6.788;2023-11-21T05:56:12;8.10;1.00
11577;DHT22;5844;51.496;6.788;2023-11-21T05:58:39;8.10;1.00
11577;DHT22;5844;51.496;6.788;2023-11-21T06:01:05;8.50;1.00
11577;DHT22;5844;51.496;6.788;2023-11-21T06:03:34;8.10;1.00
11577;DHT22;5844;51.496;6.788;2023-11-21T06:06:00;8.00;1.00
11577;DHT22;5844;51.496;6.788;2023-11-21T06:08:26;8.10;1.00
11577;DHT22;5844;51.496;6.788;2023-11-21T06:10:52;8.10;1.00
11577;DHT22;5844;51.496;6.788;2023-11-21T06:13:17;8.10;1.00
11577;DHT22;5844;51.496;6.788;2023-11-21T06:15:49;8.10;1.00
11577;DHT22;5844;51.496;6.788;2023-11-21T06:18:16;8.20;1.00
11577;DHT22;5844;51.496;6.788;2023-11-21T06:20:41;8.20;1.00
11577;DHT22;5844;51.496;6.788;2023-11-21T06:23:07;8.30;1.00
11577;DHT22;5844;51.496;6.788;2023-11-21T06:25:34;8.30;1.00
11577;DHT22;5844;51.496;6.788;2023-11-21T06:28:01;8.30;1.00
11577;DHT22;5844;51.496;6.788;2023-11-21T06:30:27;8.40;1.00
11577;DHT22;5844;51.496;6.788;2023-11-21T06:32:54;8.40;1.00
11577;DHT22;5844;51.496;6.788;2023-11-21T06:35:20;8.40;1.00
11577;DHT22;5844;51.496;6.788;2023-11-21T06:37:46;8.50;1.00
11577;DHT22;5844;51.496;6.788;2023-11-21T06:40:13;8.50;1.00
11577;DHT22;5844;51.496;6.788;2023-11-21T06:42:40;8.50;1.00
11577;DHT22;5844;51.496;6.788;2023-11-21T06:45:07;8.60;1.00
11577;DHT22;5844;51.496;6.788;2023-11-21T06:47:33;8.70;1.00
11577;DHT22;5844;51.496;6.788;2023-11-21T06:49:59;8.70;1.50
11577;DHT22;5844;51.496;6.788;2023-11-21T06:52:25;8.70;1.00
11577;DHT22;5844;51.496;6.788;2023-11-21T06:54:51;8.70;20.30
11577;DHT22;5844;51.496;6.788;2023-11-21T06:57:17;8.70;1.80
11577;DHT22;5844;51.496;6.788;2023-11-21T06:59:43;8.80;1.20
11577;DHT22;5844;51.496;6.788;2023-11-21T07:02:09;8.90;1.00
11577;DHT22;5844;51.496;6.788;2023-11-21T07:04:37;8.90;1.80
11577;DHT22;5844;51.496;6.788;2023-11-21T07:07:04;8.80;1.00
11577;DHT22;5844;51.496;6.788;2023-11-21T07:09:30;8.90;1.00
11577;DHT22;5844;51.496;6.788;2023-11-21T07:11:56;8.90;1.00
11577;DHT22;5844;51.496;6.788;2023-11-21T07:14:22;8.90;1.00
11577;DHT22;5844;51.496;6.788;2023-11-21T07:16:48;9.00;1.00
11577;DHT22;5844;51.496;6.788;2023-11-21T07:19:14;9.00;1.00
11577;DHT22;5844;51.496;6.788;2023-11-21T07:21:40;9.10;1.00
11577;DHT22;5844;51.496;6.788;2023-11-21T07:24:07;9.00;1.00
11577;DHT22;5844;51.496;6.788;2023-11-21T07:26:33;9.10;16.60
11577;DHT22;5844;51.496;6.788;2023-11-21T07:29:00;9.10;1.00
11577;DHT22;5844;51.496;6.788;2023-11-21T07:31:26;9.20;1.00
11577;DHT22;5844;51.496;6.788;2023-11-21T07:33:52;9.20;1.00
11577;DHT22;5844;51.496;6.788;2023-11-21T07:36:19;9.20;1.00
11577;DHT22;5844;51.496;6.788;2023-11-21T07:38:46;9.20;1.00
11577;DHT22;5844;51.496;6.788;2023-11-21T07:41:12;9.30;1.00
11577;DHT22;5844;51.496;6.788;2023-11-21T07:43:41;9.30;1.00
11577;DHT22;5844;51.496;6.788;2023-11-21T07:46:07;9.30;1.00
11577;DHT22;5844;51.496;6.788;2023-11-21T07:48:34;9.40;1.00
11577;DHT22;5844;51.496;6.788;2023-11-21T07:51:02;9.40;1.00
11577;DHT22;5844;51.496;6.788;2023-11-21T07:53:29;9.40;1.00
11577;DHT22;5844;51.496;6.788;2023-11-21T07:56:08;9.40;1.00
11577;DHT22;5844;51.496;6.788;2023-11-21T07:58:35;9.40;1.00
11577;DHT22;5844;51.496;6.788;2023-11-21T08:01:02;9.50;1.00
11577;DHT22;5844;51.496;6.788;2023-11-21T08:03:28;9.50;1.00
11577;DHT22;5844;51.496;6.788;2023-11-21T08:05:57;9.60;1.00
11577;DHT22;5844;51.496;6.788;2023-11-21T08:08:24;9.70;1.00
11577;DHT22;5844;51.496;6.788;2023-11-21T08:10:50;9.70;1.00
11577;DHT22;5844;51.496;6.788;2023-11-21T08:13:25;9.70;1.00
11577;DHT22;5844;51.496;6.788;2023-11-21T08:15:54;9.80;1.00
11577;DHT22;5844;51.496;6.788;2023-11-21T08:18:21;9.80;1.00
11577;DHT22;5844;51.496;6.788;2023-11-21T08:20:47;9.80;1.00
11577;DHT22;5844;51.496;6.788;2023-11-21T08:23:14;9.80;1.00
11577;DHT22;5844;51.496;6.788;2023-11-21T08:25:41;9.80;1.00
11577;DHT22;5844;51.496;6.788;2023-11-21T08:28:07;9.80;1.00
11577;DHT22;5844;51.496;6.788;2023-11-21T08:30:33;9.80;1.00
11577;DHT22;5844;51.496;6.788;2023-11-21T08:33:00;9.10;1.00
11577;DHT22;5844;51.496;6.788;2023-11-21T08:35:25;9.70;1.00
11577;DHT22;5844;51.496;6.788;2023-11-21T08:37:52;9.70;1.00
11577;DHT22;5844;51.496;6.788;2023-11-21T08:40:21;9.70;1.00
11577;DHT22;5844;51.496;6.788;2023-11-21T08:42:47;9.80;1.00
11577;DHT22;5844;51.496;6.788;2023-11-21T08:45:14;10.00;1.00
11577;DHT22;5844;51.496;6.788;2023-11-21T08:47:40;9.90;1.00
11577;DHT22;5844;51.496;6.788;2023-11-21T08:50:07;9.90;1.00
11577;DHT22;5844;51.496;6.788;2023-11-21T08:52:33;10.00;1.00
11577;DHT22;5844;51.496;6.788;2023-11-21T08:54:59;10.10;1.00
11577;DHT22;5844;51.496;6.788;2023-11-21T08:57:29;10.10;1.00
11577;DHT22;5844;51.496;6.788;2023-11-21T08:59:55;10.10;1.00
11577;DHT22;5844;51.496;6.788;2023-11-21T09:02:23;10.00;1.00
11577;DHT22;5844;51.496;6.788;2023-11-21T09:04:51;10.10;1.00
11577;DHT22;5844;51.496;6.788;2023-11-21T09:07:18;10.10;1.00
11577;DHT22;5844;51.496;6.788;2023-11-21T09:09:46;10.10;1.00
11577;DHT22;5844;51.496;6.788;2023-11-21T09:12:12;10.10;1.00
11577;DHT22;5844;51.496;6.788;2023-11-21T09:14:38;10.20;1.00
11577;DHT22;5844;51.496;6.788;2023-11-21T09:17:04;10.30;1.00
11577;DHT22;5844;51.496;6.788;2023-11-21T09:19:36;10.30;1.00
11577;DHT22;5844;51.496;6.788;2023-11-21T09:22:02;10.30;1.00
11577;DHT22;5844;51.496;6.788;2023-11-21T09:24:28;10.30;1.00
11577;DHT22;5844;51.496;6.788;2023-11-21T09:26:53;10.30;1.00
11577;DHT22;5844;51.496;6.788;2023-11-21T09:29:19;10.30;1.00
11577;DHT22;5844;51.496;6.788;2023-11-21T09:31:45;10.30;1.00
11577;DHT22;5844;51.496;6.788;2023-11-21T09:34:10;10.40;1.00
11577;DHT22;5844;51.496;6.788;2023-11-21T09:36:37;10.30;1.00
11577;DHT22;5844;51.496;6.788;2023-11-21T09:39:04;10.30;1.00
11577;DHT22;5844;51.496;6.788;2023-11-21T09:41:51;10.20;1.00
11577;DHT22;5844;51.496;6.788;2023-11-21T09:44:31;10.30;1.00
11577;DHT22;5844;51.496;6.788;2023-11-21T09:46:59;10.20;1.00
11577;DHT22;5844;51.496;6.788;2023-11-21T09:49:26;10.20;1.00
11577;DHT22;5844;51.496;6.788;2023-11-21T09:51:55;10.20;1.00
11577;DHT22;5844;51.496;6.788;2023-11-21T09:54:22;10.10;1.00
11577;DHT22;5844;51.496;6.788;2023-11-21T09:56:48;10.20;1.00
11577;DHT22;5844;51.496;6.788;2023-11-21T09:59:16;10.20;1.00
11577;DHT22;5844;51.496;6.788;2023-11-21T10:01:42;10.30;1.00
11577;DHT22;5844;51.496;6.788;2023-11-21T10:04:11;10.40;1.00
11577;DHT22;5844;51.496;6.788;2023-11-21T10:06:41;10.60;1.00
11577;DHT22;5844;51.496;6.788;2023-11-21T10:09:14;10.70;1.00
11577;DHT22;5844;51.496;6.788;2023-11-21T10:11:43;10.80;1.00
11577;DHT22;5844;51.496;6.788;2023-11-21T10:14:12;10.90;1.00
11577;DHT22;5844;51.496;6.788;2023-11-21T10:16:41;11.10;1.00
11577;DHT22;5844;51.496;6.788;2023-11-21T10:19:10;11.30;1.00
11577;DHT22;5844;51.496;6.788;2023-11-21T10:21:37;11.40;1.00
11577;DHT22;5844;51.496;6.788;2023-11-21T10:24:03;11.40;1.00
11577;DHT22;5844;51.496;6.788;2023-11-21T10:26:30;11.60;1.00
11577;DHT22;5844;51.496;6.788;2023-11-21T10:28:57;11.70;1.00
11577;DHT22;5844;51.496;6.788;2023-11-21T10:31:25;11.80;1.00
11577;DHT22;5844;51.496;6.788;2023-11-21T10:33:52;11.80;1.00
11577;DHT22;5844;51.496;6.788;2023-11-21T10:36:25;11.90;1.00
11577;DHT22;5844;51.496;6.788;2023-11-21T10:38:52;11.90;1.00
11577;DHT22;5844;51.496;6.788;2023-11-21T10:41:19;11.90;1.00
11577;DHT22;5844;51.496;6.788;2023-11-21T10:43:45;12.00;1.00
11577;DHT22;5844;51.496;6.788;2023-11-21T10:46:10;12.00;1.00
11577;DHT22;5844;51.496;6.788;2023-11-21T10:48:36;12.10;1.00
11577;DHT22;5844;51.496;6.788;2023-11-21T10:51:12;12.10;1.00
11577;DHT22;5844;51.496;6.788;2023-11-21T10:53:40;12.00;1.00
11577;DHT22;5844;51.496;6.788;2023-11-21T10:56:09;11.90;1.00
11577;DHT22;5844;51.496;6.788;2023-11-21T10:58:43;11.80;1.00
11577;DHT22;5844;51.496;6.788;2023-11-21T11:01:09;11.70;1.00
11577;DHT22;5844;51.496;6.788;2023-11-21T11:03:39;11.60;1.00
11577;DHT22;5844;51.496;6.788;2023-11-21T11:06:05;11.60;1.00
11577;DHT22;5844;51.496;6.788;2023-11-21T11:08:37;11.60;1.00
11577;DHT22;5844;51.496;6.788;2023-11-21T11:11:06;11.80;1.00
11577;DHT22;5844;51.496;6.788;2023-11-21T11:13:32;11.90;1.00
11577;DHT22;5844;51.496;6.788;2023-11-21T11:15:59;12.00;1.00
11577;DHT22;5844;51.496;6.788;2023-11-21T11:18:29;12.00;1.00
11577;DHT22;5844;51.496;6.788;2023-11-21T11:23:59;11.90;1.00
11577;DHT22;5844;51.496;6.788;2023-11-21T11:26:42;11.70;1.00
11577;DHT22;5844;51.496;6.788;2023-11-21T11:34:29;11.30;1.00
11577;DHT22;5844;51.496;6.788;2023-11-21T11:37:06;11.20;1.00
11577;DHT22;5844;51.496;6.788;2023-11-21T11:39:40;11.20;1.00
11577;DHT22;5844;51.496;6.788;2023-11-21T11:42:16;11.20;1.00
11577;DHT22;5844;51.496;6.788;2023-11-21T11:50:17;11.30;1.00
11577;DHT22;5844;51.496;6.788;2023-11-21T11:52:44;11.30;1.00
11577;DHT22;5844;51.496;6.788;2023-11-21T11:55:15;11.40;1.00
11577;DHT22;5844;51.496;6.788;2023-11-21T11:57:44;11.50;1.00
11577;DHT22;5844;51.496;6.788;2023-11-21T12:00:33;11.60;1.00
11577;DHT22;5844;51.496;6.788;2023-11-21T12:03:04;11.50;1.00
11577;DHT22;5844;51.496;6.788;2023-11-21T12:05:32;11.50;1.00
11577;DHT22;5844;51.496;6.788;2023-11-21T12:08:00;11.60;1.00
11577;DHT22;5844;51.496;6.788;2023-11-21T12:10:31;11.60;1.00
11577;DHT22;5844;51.496;6.788;2023-11-21T12:13:07;11.70;1.00
11577;DHT22;5844;51.496;6.788;2023-11-21T12:15:37;11.70;1.00
11577;DHT22;5844;51.496;6.788;2023-11-21T12:18:03;11.80;1.00
11577;DHT22;5844;51.496;6.788;2023-11-21T12:20:30;11.90;1.00
11577;DHT22;5844;51.496;6.788;2023-11-21T12:22:59;12.00;1.00
11577;DHT22;5844;51.496;6.788;2023-11-21T12:25:27;12.10;1.00
11577;DHT22;5844;51.496;6.788;2023-11-21T12:28:00;12.00;1.00
11577;DHT22;5844;51.496;6.788;2023-11-21T12:30:30;11.90;1.00
11577;DHT22;5844;51.496;6.788;2023-11-21T12:32:58;11.80;1.00
11577;DHT22;5844;51.496;6.788;2023-11-21T12:35:26;11.70;1.00
11577;DHT22;5844;51.496;6.788;2023-11-21T12:37:53;11.60;1.00
11577;DHT22;5844;51.496;6.788;2023-11-21T12:40:19;11.50;1.00
11577;DHT22;5844;51.496;6.788;2023-11-21T12:42:48;11.50;1.00
11577;DHT22;5844;51.496;6.788;2023-11-21T12:45:20;11.50;1.00
11577;DHT22;5844;51.496;6.788;2023-11-21T12:47:49;11.50;1.00
11577;DHT22;5844;51.496;6.788;2023-11-21T12:50:25;11.50;1.00
11577;DHT22;5844;51.496;6.788;2023-11-21T12:52:57;11.40;1.00
11577;DHT22;5844;51.496;6.788;2023-11-21T12:55:24;11.40;1.00
11577;DHT22;5844;51.496;6.788;2023-11-21T12:57:55;11.40;1.00
11577;DHT22;5844;51.496;6.788;2023-11-21T13:00:29;11.30;1.00
11577;DHT22;5844;51.496;6.788;2023-11-21T13:02:58;11.30;1.00
11577;DHT22;5844;51.496;6.788;2023-11-21T13:05:32;11.20;1.00
11577;DHT22;5844;51.496;6.788;2023-11-21T13:08:00;11.10;1.00
11577;DHT22;5844;51.496;6.788;2023-11-21T13:10:30;11.00;1.00
11577;DHT22;5844;51.496;6.788;2023-11-21T13:13:00;10.90;1.00
11577;DHT22;5844;51.496;6.788;2023-11-21T13:15:27;10.80;1.00
11577;DHT22;5844;51.496;6.788;2023-11-21T13:17:53;10.80;1.00
11577;DHT22;5844;51.496;6.788;2023-11-21T13:20:20;10.80;1.00
11577;DHT22;5844;51.496;6.788;2023-11-21T13:22:53;10.80;1.00
11577;DHT22;5844;51.496;6.788;2023-11-21T13:25:29;10.80;1.00
11577;DHT22;5844;51.496;6.788;2023-11-21T13:27:57;10.90;1.00
11577;DHT22;5844;51.496;6.788;2023-11-21T13:30:24;10.90;1.00
11577;DHT22;5844;51.496;6.788;2023-11-21T13:32:56;10.90;1.00
11577;DHT22;5844;51.496;6.788;2023-11-21T13:35:23;10.90;1.00
11577;DHT22;5844;51.496;6.788;2023-11-21T13:38:05;10.90;1.00
11577;DHT22;5844;51.496;6.788;2023-11-21T13:40:32;10.80;1.00
11577;DHT22;5844;51.496;6.788;2023-11-21T13:43:02;10.90;1.00
11577;DHT22;5844;51.496;6.788;2023-11-21T13:45:30;10.90;1.00
11577;DHT22;5844;51.496;6.788;2023-11-21T13:47:56;10.90;1.00
11577;DHT22;5844;51.496;6.788;2023-11-21T13:50:26;10.80;1.00
11577;DHT22;5844;51.496;6.788;2023-11-21T13:53:00;10.80;1.00
11577;DHT22;5844;51.496;6.788;2023-11-21T13:55:51;10.80;1.00
11577;DHT22;5844;51.496;6.788;2023-11-21T13:58:20;10.70;1.00
11577;DHT22;5844;51.496;6.788;2023-11-21T14:01:00;10.80;1.00
11577;DHT22;5844;51.496;6.788;2023-11-21T14:03:27;10.80;1.00
11577;DHT22;5844;51.496;6.788;2023-11-21T14:06:05;10.70;1.00
11577;DHT22;5844;51.496;6.788;2023-11-21T14:08:40;10.60;1.00
11577;DHT22;5844;51.496;6.788;2023-11-21T14:11:07;10.60;1.00
11577;DHT22;5844;51.496;6.788;2023-11-21T14:13:32;10.50;1.00
11577;DHT22;5844;51.496;6.788;2023-11-21T14:15:59;10.50;1.00
11577;DHT22;5844;51.496;6.788;2023-11-21T14:18:28;10.50;1.00
11577;DHT22;5844;51.496;6.788;2023-11-21T14:21:03;10.50;1.00
11577;DHT22;5844;51.496;6.788;2023-11-21T14:23:28;10.50;1.00
11577;DHT22;5844;51.496;6.788;2023-11-21T14:25:55;10.50;1.00
11577;DHT22;5844;51.496;6.788;2023-11-21T14:28:21;10.50;1.00
11577;DHT22;5844;51.496;6.788;2023-11-21T14:30:47;10.50;1.00
11577;DHT22;5844;51.496;6.788;2023-11-21T14:33:13;10.50;1.00
11577;DHT22;5844;51.496;6.788;2023-11-21T14:35:38;10.40;1.00
11577;DHT22;5844;51.496;6.788;2023-11-21T14:38:04;10.40;1.00
11577;DHT22;5844;51.496;6.788;2023-11-21T14:40:33;10.40;1.00
11577;DHT22;5844;51.496;6.788;2023-11-21T14:43:01;10.40;1.00
11577;DHT22;5844;51.496;6.788;2023-11-21T14:45:26;10.30;1.00
11577;DHT22;5844;51.496;6.788;2023-11-21T14:47:54;10.30;1.00
11577;DHT22;5844;51.496;6.788;2023-11-21T14:50:38;10.30;1.00
11577;DHT22;5844;51.496;6.788;2023-11-21T14:53:14;10.30;1.00
11577;DHT22;5844;51.496;6.788;2023-11-21T14:55:40;10.30;1.00
11577;DHT22;5844;51.496;6.788;2023-11-21T14:58:25;10.20;1.00
11577;DHT22;5844;51.496;6.788;2023-11-21T15:00:55;10.20;1.00
11577;DHT22;5844;51.496;6.788;2023-11-21T15:03:27;10.20;1.00
11577;DHT22;5844;51.496;6.788;2023-11-21T15:05:56;10.10;1.00
11577;DHT22;5844;51.496;6.788;2023-11-21T15:08:22;10.10;1.00
11577;DHT22;5844;51.496;6.788;2023-11-21T15:10:55;10.00;1.00
11577;DHT22;5844;51.496;6.788;2023-11-21T15:13:21;10.00;1.00
11577;DHT22;5844;51.496;6.788;2023-11-21T15:15:48;9.90;1.00
11577;DHT22;5844;51.496;6.788;2023-11-21T15:18:14;9.90;1.00
11577;DHT22;5844;51.496;6.788;2023-11-21T15:20:40;9.90;1.00
11577;DHT22;5844;51.496;6.788;2023-11-21T15:23:07;9.90;1.00
11577;DHT22;5844;51.496;6.788;2023-11-21T15:25:33;9.80;1.00
11577;DHT22;5844;51.496;6.788;2023-11-21T15:28:00;9.80;1.00
11577;DHT22;5844;51.496;6.788;2023-11-21T15:30:26;9.80;1.00
11577;DHT22;5844;51.496;6.788;2023-11-21T15:32:52;9.70;1.00
11577;DHT22;5844;51.496;6.788;2023-11-21T15:35:20;9.70;1.00
11577;DHT22;5844;51.496;6.788;2023-11-21T15:37:46;9.60;1.00
11577;DHT22;5844;51.496;6.788;2023-11-21T15:40:11;9.60;1.00
11577;DHT22;5844;51.496;6.788;2023-11-21T15:42:40;9.60;1.00
11577;DHT22;5844;51.496;6.788;2023-11-21T15:45:06;9.60;1.00
11577;DHT22;5844;51.496;6.788;2023-11-21T15:47:34;9.60;1.00
11577;DHT22;5844;51.496;6.788;2023-11-21T15:50:00;9.60;1.00
11577;DHT22;5844;51.496;6.788;2023-11-21T15:52:26;9.50;1.00
11577;DHT22;5844;51.496;6.788;2023-11-21T15:54:54;9.60;1.00
11577;DHT22;5844;51.496;6.788;2023-11-21T15:57:19;9.60;1.00
11577;DHT22;5844;51.496;6.788;2023-11-21T16:02:26;9.50;1.00
11577;DHT22;5844;51.496;6.788;2023-11-21T16:04:52;9.50;1.00
11577;DHT22;5844;51.496;6.788;2023-11-21T16:07:18;9.50;1.00
11577;DHT22;5844;51.496;6.788;2023-11-21T16:09:43;9.50;1.00
11577;DHT22;5844;51.496;6.788;2023-11-21T16:12:10;9.50;1.00
11577;DHT22;5844;51.496;6.788;2023-11-21T16:14:37;9.50;1.00
11577;DHT22;5844;51.496;6.788;2023-11-21T16:17:13;9.40;1.00
11577;DHT22;5844;51.496;6.788;2023-11-21T16:19:47;9.30;1.00
11577;DHT22;5844;51.496;6.788;2023-11-21T16:22:13;9.40;1.00
11577;DHT22;5844;51.496;6.788;2023-11-21T16:24:38;9.30;1.00
11577;DHT22;5844;51.496;6.788;2023-11-21T16:27:04;8.10;1.00
11577;DHT22;5844;51.496;6.788;2023-11-21T16:29:31;9.30;1.00
11577;DHT22;5844;51.496;6.788;2023-11-21T16:31:58;9.20;1.00